createdAt,value
2018-06-05T00:00:54.895Z,22.03
2018-06-05T00:03:24.186Z,22.50
2018-06-05T00:05:53.300Z,22.00
2018-06-05T00:08:22.426Z,22.97
2018-06-05T00:10:51.595Z,22.13
2018-06-05T00:13:20.765Z,23.47
2018-06-05T00:15:50.084Z,23.23
2018-06-05T00:18:19.179Z,24.23
2018-06-05T00:20:48.349Z,22.87
2018-06-05T00:23:17.477Z,23.00
2018-06-05T00:25:46.642Z,23.43
2018-06-05T00:28:15.782Z,25.80
2018-06-05T00:30:44.923Z,26.20
2018-06-05T00:33:14.106Z,25.80
2018-06-05T00:35:44.294Z,26.77
2018-06-05T00:38:13.476Z,26.70
2018-06-05T00:40:42.614Z,28.27
2018-06-05T00:43:11.724Z,26.03
2018-06-05T00:45:50.562Z,26.80
2018-06-05T00:48:19.689Z,29.77
2018-06-05T00:50:48.827Z,26.50
2018-06-05T00:53:18.006Z,26.47
2018-06-05T00:55:47.127Z,25.93
2018-06-05T00:58:16.275Z,28.67
2018-06-05T01:00:45.403Z,28.83
2018-06-05T01:03:14.762Z,29.20
2018-06-05T01:05:43.885Z,30.47
2018-06-05T01:08:13.037Z,29.60
2018-06-05T01:10:42.234Z,29.77
2018-06-05T01:13:11.388Z,30.63
2018-06-05T01:15:40.539Z,30.47
2018-06-05T01:18:09.737Z,30.27
2018-06-05T01:20:38.827Z,29.00
2018-06-05T01:23:07.958Z,32.47
2018-06-05T01:25:37.166Z,31.83
2018-06-05T01:28:06.292Z,32.73
2018-06-05T01:30:35.593Z,31.53
2018-06-05T01:33:04.763Z,32.17
2018-06-05T01:35:33.882Z,34.23
2018-06-05T01:38:03.077Z,34.53
2018-06-05T01:40:32.235Z,32.87
2018-06-05T01:43:01.345Z,36.07
2018-06-05T01:45:30.496Z,38.87
2018-06-05T01:47:59.604Z,35.07
2018-06-05T01:50:29.563Z,35.87
2018-06-05T01:52:58.689Z,36.43
2018-06-05T01:55:27.810Z,37.60
2018-06-05T01:57:56.982Z,37.93
2018-06-05T02:00:26.206Z,37.53
2018-06-05T02:02:55.481Z,37.80
2018-06-05T02:05:24.563Z,38.00
2018-06-05T02:07:53.705Z,37.10
2018-06-05T02:10:22.777Z,37.37
2018-06-05T02:12:51.928Z,39.80
2018-06-05T02:15:21.026Z,41.07
2018-06-05T02:17:50.187Z,40.33
2018-06-05T02:20:19.309Z,40.10
2018-06-05T02:22:48.442Z,39.40
2018-06-05T02:25:17.569Z,39.93
2018-06-05T02:27:46.658Z,40.90
2018-06-05T02:30:15.843Z,39.03
2018-06-05T02:32:45.016Z,37.77
2018-06-05T02:35:14.232Z,38.73
2018-06-05T02:37:43.385Z,39.07
2018-06-05T02:40:12.523Z,38.27
2018-06-05T02:42:41.674Z,39.27
2018-06-05T02:45:10.815Z,40.13
2018-06-05T02:47:39.933Z,40.27
2018-06-05T02:50:09.077Z,41.50
2018-06-05T02:52:38.250Z,39.10
2018-06-05T02:55:07.397Z,38.90
2018-06-05T02:57:36.540Z,40.50
2018-06-05T03:00:05.944Z,39.80
2018-06-05T03:02:35.818Z,39.77
2018-06-05T03:05:04.980Z,41.37
2018-06-05T03:07:34.102Z,40.13
2018-06-05T03:10:03.678Z,39.90
2018-06-05T03:12:32.791Z,41.83
2018-06-05T03:15:01.943Z,39.27
2018-06-05T03:17:31.088Z,40.07
2018-06-05T03:20:00.189Z,40.27
2018-06-05T03:22:29.295Z,39.87
2018-06-05T03:24:58.419Z,38.83
2018-06-05T03:27:27.555Z,41.87
2018-06-05T03:29:56.711Z,40.30
2018-06-05T03:32:25.806Z,38.73
2018-06-05T03:34:54.977Z,39.97
2018-06-05T03:37:24.112Z,40.23
2018-06-05T03:39:53.228Z,41.17
2018-06-05T03:42:22.344Z,37.43
2018-06-05T03:44:51.455Z,38.17
2018-06-05T03:47:20.587Z,38.13
2018-06-05T03:49:49.711Z,37.40
2018-06-05T03:52:18.881Z,36.63
2018-06-05T03:54:47.960Z,35.07
2018-06-05T03:57:17.055Z,37.53
2018-06-05T03:59:46.176Z,37.27
2018-06-05T04:02:15.275Z,38.30
2018-06-05T04:04:44.442Z,37.43
2018-06-05T04:07:13.578Z,39.93
2018-06-05T04:09:42.756Z,38.47
2018-06-05T04:12:11.860Z,38.90
2018-06-05T04:14:41.036Z,40.33
2018-06-05T04:17:10.163Z,38.30
2018-06-05T04:19:39.273Z,37.23
2018-06-05T04:22:08.442Z,38.80
2018-06-05T04:24:37.552Z,37.17
2018-06-05T04:27:06.759Z,37.70
2018-06-05T04:29:35.883Z,37.43
2018-06-05T04:32:05.683Z,38.13
2018-06-05T04:34:34.778Z,35.80
2018-06-05T04:37:03.912Z,37.87
2018-06-05T04:39:33.081Z,36.90
2018-06-05T04:42:02.193Z,36.47
2018-06-05T04:44:31.293Z,37.93
2018-06-05T04:47:00.417Z,36.20
2018-06-05T04:49:29.547Z,34.30
2018-06-05T04:51:58.657Z,34.70
2018-06-05T04:54:27.813Z,34.63
2018-06-05T04:56:56.908Z,34.33
2018-06-05T04:59:26.143Z,35.17
2018-06-05T05:01:55.297Z,35.40
2018-06-05T05:04:24.430Z,35.23
2018-06-05T05:06:53.578Z,33.00
2018-06-05T05:09:22.786Z,32.73
2018-06-05T05:11:51.929Z,33.80
2018-06-05T05:14:21.075Z,33.90
2018-06-05T05:16:50.403Z,32.50
2018-06-05T05:19:19.529Z,34.03
2018-06-05T05:21:48.653Z,33.73
2018-06-05T05:24:17.739Z,31.20
2018-06-05T05:26:46.859Z,32.47
2018-06-05T05:29:16.030Z,32.63
2018-06-05T05:31:45.153Z,32.77
2018-06-05T05:34:14.285Z,34.43
2018-06-05T05:36:43.519Z,34.03
2018-06-05T05:39:12.768Z,33.00
2018-06-05T05:41:43.018Z,31.90
2018-06-05T05:44:12.252Z,33.10
2018-06-05T05:46:41.340Z,32.93
2018-06-05T05:49:10.508Z,30.83
2018-06-05T05:51:39.641Z,33.37
2018-06-05T05:54:08.783Z,31.33
2018-06-05T05:56:37.958Z,31.30
2018-06-05T05:59:07.162Z,31.67
2018-06-05T06:01:36.324Z,33.60
2018-06-05T06:04:05.597Z,32.73
2018-06-05T06:06:34.794Z,32.77
2018-06-05T06:09:05.392Z,34.77
2018-06-05T06:11:34.527Z,34.50
2018-06-05T06:14:03.771Z,36.10
2018-06-05T06:16:32.930Z,36.30
2018-06-05T06:19:02.046Z,37.67
2018-06-05T06:21:31.885Z,37.80
2018-06-05T06:24:00.989Z,38.50
2018-06-05T06:26:30.092Z,38.40
2018-06-05T06:28:59.227Z,38.30
2018-06-05T06:31:29.386Z,37.73
2018-06-05T06:33:58.477Z,39.47
2018-06-05T06:36:27.537Z,39.13
2018-06-05T06:38:56.684Z,40.23
2018-06-05T06:41:25.807Z,68.27
2018-06-05T06:43:54.978Z,39.07
2018-06-05T06:46:24.058Z,39.17
2018-06-05T06:48:53.258Z,39.27
2018-06-05T06:51:22.346Z,37.70
2018-06-05T06:53:51.713Z,36.90
2018-06-05T06:56:22.964Z,37.40
2018-06-05T06:58:53.824Z,41.17
2018-06-05T07:01:25.887Z,40.87
2018-06-05T07:03:59.521Z,42.13
2018-06-05T07:06:33.272Z,43.13
2018-06-05T07:09:06.073Z,76.57
2018-06-05T07:11:39.900Z,37.70
2018-06-05T07:14:10.204Z,37.33
2018-06-05T07:16:39.736Z,38.03
2018-06-05T07:19:12.641Z,38.23
2018-06-05T07:21:42.096Z,38.87
2018-06-05T07:24:11.183Z,40.20
2018-06-05T07:26:40.324Z,37.97
2018-06-05T07:29:09.491Z,40.50
2018-06-05T07:31:38.617Z,41.87
2018-06-05T07:34:07.722Z,39.33
2018-06-05T07:36:36.844Z,41.43
2018-06-05T07:39:08.350Z,41.50
2018-06-05T07:41:37.531Z,39.40
2018-06-05T07:44:06.707Z,40.47
2018-06-05T07:46:35.840Z,40.50
2018-06-05T07:49:05.039Z,44.67
2018-06-05T07:51:34.165Z,44.47
2018-06-05T07:54:03.264Z,45.17
2018-06-05T07:56:32.435Z,45.60
2018-06-05T07:59:01.543Z,44.17
2018-06-05T08:01:30.687Z,43.87
2018-06-05T08:03:59.842Z,42.37
2018-06-05T08:06:28.998Z,43.60
2018-06-05T08:08:58.084Z,43.40
2018-06-05T08:11:27.253Z,42.07
2018-06-05T08:13:56.407Z,42.27
2018-06-05T08:16:25.548Z,40.80
2018-06-05T08:18:54.748Z,40.07
2018-06-05T08:21:23.904Z,40.00
2018-06-05T08:23:53.089Z,40.50
2018-06-05T08:26:22.265Z,39.60
2018-06-05T08:28:51.517Z,38.83
2018-06-05T08:31:20.692Z,38.63
2018-06-05T08:33:49.905Z,39.13
2018-06-05T08:36:19.091Z,36.90
2018-06-05T08:38:48.337Z,38.50
2018-06-05T08:41:17.601Z,38.63
2018-06-05T08:43:46.899Z,38.33
2018-06-05T08:46:16.098Z,36.83
2018-06-05T08:48:46.129Z,37.47
2018-06-05T08:51:15.248Z,35.67
2018-06-05T08:53:44.414Z,34.77
2018-06-05T08:56:13.571Z,34.10
2018-06-05T08:58:42.733Z,33.90
2018-06-05T09:01:11.837Z,33.47
2018-06-05T09:03:41.034Z,34.07
2018-06-05T09:06:10.121Z,33.17
2018-06-05T09:08:39.283Z,33.83
2018-06-05T09:11:08.482Z,33.57
2018-06-05T09:13:37.611Z,34.20
2018-06-05T09:16:06.878Z,34.07
2018-06-05T09:18:36.022Z,34.53
2018-06-05T09:21:05.217Z,35.00
2018-06-05T09:23:34.362Z,33.93
2018-06-05T09:26:03.565Z,32.53
2018-06-05T09:28:32.729Z,31.63
2018-06-05T09:31:01.885Z,31.67
2018-06-05T09:33:31.074Z,31.60
2018-06-05T09:36:00.207Z,33.63
2018-06-05T09:38:29.460Z,32.50
2018-06-05T09:40:58.588Z,37.70
2018-06-05T09:43:27.820Z,38.93
2018-06-05T09:45:56.949Z,40.07
2018-06-05T09:48:26.246Z,42.70
2018-06-05T09:50:55.363Z,42.33
2018-06-05T09:53:24.485Z,40.23
2018-06-05T09:55:53.650Z,40.27
2018-06-05T09:58:22.922Z,39.17
2018-06-05T10:00:52.881Z,42.23
2018-06-05T10:03:22.216Z,41.37
2018-06-05T10:05:52.002Z,41.37
2018-06-05T10:08:21.151Z,40.23
2018-06-05T10:10:50.433Z,39.67
2018-06-05T10:13:19.542Z,40.90
2018-06-05T10:15:48.741Z,41.67
2018-06-05T10:18:17.849Z,46.57
2018-06-05T10:20:47.097Z,47.10
2018-06-05T10:23:16.197Z,45.60
2018-06-05T10:25:45.316Z,42.90
2018-06-05T10:28:14.492Z,45.90
2018-06-05T10:30:43.681Z,45.80
2018-06-05T10:33:12.811Z,43.27
2018-06-05T10:35:41.956Z,45.27
2018-06-05T10:38:11.075Z,44.97
2018-06-05T10:40:40.268Z,48.90
2018-06-05T10:43:09.434Z,43.00
2018-06-05T10:45:39.486Z,43.47
2018-06-05T10:48:08.574Z,43.57
2018-06-05T10:50:40.657Z,43.87
2018-06-05T10:53:09.888Z,44.23
2018-06-05T10:55:39.028Z,42.93
2018-06-05T10:58:08.168Z,41.63
2018-06-05T11:00:37.276Z,44.40
2018-06-05T11:03:06.458Z,44.13
2018-06-05T11:05:35.595Z,43.07
2018-06-05T11:08:04.870Z,43.20
2018-06-05T11:10:34.060Z,43.53
2018-06-05T11:13:03.225Z,45.87
2018-06-05T11:15:35.313Z,43.50
2018-06-05T11:18:04.586Z,41.27
2018-06-05T11:20:33.822Z,43.13
2018-06-05T11:23:02.988Z,43.93
2018-06-05T11:25:32.212Z,44.23
2018-06-05T11:28:01.369Z,41.77
2018-06-05T11:30:30.568Z,40.63
2018-06-05T11:32:59.847Z,40.87
2018-06-05T11:35:29.030Z,40.57
2018-06-05T11:37:58.200Z,43.37
2018-06-05T11:40:28.624Z,41.37
2018-06-05T11:42:57.848Z,43.90
2018-06-05T11:45:27.123Z,43.73
2018-06-05T11:47:56.263Z,41.70
2018-06-05T11:50:25.516Z,41.10
2018-06-05T11:52:54.635Z,41.43
2018-06-05T11:55:23.832Z,38.90
2018-06-05T11:57:52.990Z,37.10
2018-06-05T12:00:22.316Z,41.93
2018-06-05T12:02:51.446Z,36.43
2018-06-05T12:05:20.604Z,39.40
2018-06-05T12:07:49.762Z,37.40
2018-06-05T12:10:18.879Z,33.27
2018-06-05T12:12:47.991Z,32.47
2018-06-05T12:15:17.195Z,33.07
2018-06-05T12:17:46.383Z,31.07
2018-06-05T12:20:15.523Z,31.73
2018-06-05T12:22:44.785Z,31.07
2018-06-05T12:25:14.217Z,33.17
2018-06-05T12:27:43.490Z,35.40
2018-06-05T12:30:12.614Z,32.87
2018-06-05T12:32:41.772Z,31.60
2018-06-05T12:35:10.848Z,32.77
2018-06-05T12:37:40.046Z,29.40
2018-06-05T12:40:09.190Z,33.07
2018-06-05T12:42:38.339Z,31.97
2018-06-05T12:45:07.542Z,32.60
2018-06-05T12:47:36.633Z,31.60
2018-06-05T12:50:06.344Z,29.83
2018-06-05T12:52:35.479Z,29.50
2018-06-05T12:55:04.663Z,30.00
2018-06-05T12:57:33.852Z,29.03
2018-06-05T13:00:03.067Z,29.73
2018-06-05T13:02:32.185Z,29.43
2018-06-05T13:05:01.295Z,28.17
2018-06-05T13:07:30.469Z,28.33
2018-06-05T13:09:59.651Z,25.93
2018-06-05T13:12:28.813Z,28.63
2018-06-05T13:14:57.930Z,27.83
2018-06-05T13:17:27.097Z,27.23
2018-06-05T13:19:59.915Z,28.27
2018-06-05T13:22:29.627Z,25.67
2018-06-05T13:24:58.812Z,28.90
2018-06-05T13:27:27.899Z,28.40
2018-06-05T13:29:57.113Z,29.57
2018-06-05T13:32:26.208Z,29.20
2018-06-05T13:34:55.396Z,28.60
2018-06-05T13:37:24.700Z,28.30
2018-06-05T13:39:53.941Z,28.60
2018-06-05T13:42:23.068Z,26.33
2018-06-05T13:44:52.289Z,29.57
2018-06-05T13:47:21.443Z,27.30
2018-06-05T13:49:50.608Z,30.32
2018-06-05T13:52:19.848Z,28.90
2018-06-05T13:54:49.007Z,25.57
2018-06-05T13:57:18.157Z,26.57
2018-06-05T13:59:47.340Z,25.48
2018-06-05T14:02:16.481Z,28.65
2018-06-05T14:04:45.644Z,28.30
2018-06-05T14:07:14.765Z,27.73
2018-06-05T14:09:44.414Z,28.73
2018-06-05T14:12:13.635Z,27.45
2018-06-05T14:14:42.842Z,25.85
2018-06-05T14:17:12.171Z,25.80
2018-06-05T14:19:41.338Z,26.27
2018-06-05T14:22:10.555Z,27.77
2018-06-05T14:24:39.705Z,28.87
2018-06-05T14:27:08.925Z,27.22
2018-06-05T14:29:38.082Z,29.30
2018-06-05T14:32:07.013Z,28.90
2018-06-05T14:34:36.147Z,27.95
2018-06-05T14:37:05.394Z,25.97
2018-06-05T14:39:34.498Z,29.52
2018-06-05T14:42:03.603Z,29.37
2018-06-05T14:44:32.756Z,28.40
2018-06-05T14:47:01.884Z,28.75
2018-06-05T14:49:31.031Z,28.47
2018-06-05T14:52:00.167Z,28.20
2018-06-05T14:54:29.314Z,29.12
2018-06-05T14:56:58.442Z,30.27
2018-06-05T14:59:27.578Z,27.02
2018-06-05T15:01:56.732Z,29.15
2018-06-05T15:04:26.329Z,27.90
2018-06-05T15:06:55.503Z,24.75
2018-06-05T15:09:24.659Z,28.87
2018-06-05T15:11:53.745Z,29.50
2018-06-05T15:14:22.862Z,29.10
2018-06-05T15:16:52.087Z,29.60
2018-06-05T15:19:21.182Z,29.12
2018-06-05T15:21:50.342Z,28.42
2018-06-05T15:24:19.521Z,26.12
2018-06-05T15:26:48.821Z,27.55
2018-06-05T15:29:17.943Z,28.60
2018-06-05T15:31:47.083Z,26.27
2018-06-05T15:34:16.203Z,25.75
2018-06-05T15:36:45.317Z,24.55
2018-06-05T15:39:14.496Z,25.90
2018-06-05T15:41:43.733Z,26.42
2018-06-05T15:44:12.892Z,25.68
2018-06-05T15:46:42.047Z,28.10
2018-06-05T15:49:11.257Z,27.15
2018-06-05T15:51:40.413Z,26.00
2018-06-05T15:54:09.587Z,25.75
2018-06-05T15:56:38.741Z,25.35
2018-06-05T15:59:07.919Z,25.95
2018-06-05T16:01:37.068Z,24.87
2018-06-05T16:04:06.348Z,24.47
2018-06-05T16:06:35.525Z,22.25
2018-06-05T16:09:07.051Z,22.85
2018-06-05T16:11:36.280Z,24.18
2018-06-05T16:14:05.524Z,25.17
2018-06-05T16:16:34.719Z,23.85
2018-06-05T16:19:03.852Z,23.77
2018-06-05T16:21:33.003Z,23.90
2018-06-05T16:24:02.183Z,22.57
2018-06-05T16:26:31.394Z,21.93
2018-06-05T16:29:00.617Z,24.20
2018-06-05T16:31:29.717Z,23.70
2018-06-05T16:33:58.844Z,23.57
2018-06-05T16:36:27.982Z,24.80
2018-06-05T16:38:57.123Z,25.47
2018-06-05T16:41:26.311Z,23.20
2018-06-05T16:43:55.483Z,25.83
2018-06-05T16:46:24.890Z,25.13
2018-06-05T16:48:54.083Z,25.27
2018-06-05T16:51:23.185Z,25.90
2018-06-05T16:53:52.319Z,27.47
2018-06-05T16:56:21.428Z,26.53
2018-06-05T16:58:50.594Z,26.67
2018-06-05T17:01:19.781Z,27.53
2018-06-05T17:03:48.887Z,27.13
2018-06-05T17:06:18.124Z,27.77
2018-06-05T17:08:47.313Z,28.63
2018-06-05T17:11:16.638Z,30.03
2018-06-05T17:13:46.355Z,29.07
2018-06-05T17:16:15.509Z,29.20
2018-06-05T17:18:44.707Z,28.03
2018-06-05T17:21:13.908Z,29.43
2018-06-05T17:23:43.048Z,28.30
2018-06-05T17:26:12.211Z,28.50
2018-06-05T17:28:41.339Z,26.93
2018-06-05T17:31:10.485Z,27.40
2018-06-05T17:33:39.652Z,26.37
2018-06-05T17:36:08.771Z,26.07
2018-06-05T17:38:37.874Z,25.27
2018-06-05T17:41:07.048Z,26.23
2018-06-05T17:43:36.135Z,25.40
2018-06-05T17:46:05.407Z,24.60
2018-06-05T17:48:34.618Z,25.07
2018-06-05T17:51:04.093Z,25.23
2018-06-05T17:53:33.267Z,25.50
2018-06-05T17:56:02.578Z,25.80
2018-06-05T17:58:31.722Z,23.77
2018-06-05T18:01:00.855Z,23.03
2018-06-05T18:03:29.977Z,22.07
2018-06-05T18:05:59.078Z,21.67
2018-06-05T18:08:28.205Z,21.33
2018-06-05T18:10:57.333Z,22.00
2018-06-05T18:13:26.516Z,21.87
2018-06-05T18:15:55.649Z,21.37
2018-06-05T18:18:24.770Z,21.00
2018-06-05T18:20:54.027Z,21.57
2018-06-05T18:23:23.179Z,23.10
2018-06-05T18:25:52.333Z,22.20
2018-06-05T18:28:21.495Z,22.73
2018-06-05T18:30:50.627Z,24.40
2018-06-05T18:33:19.779Z,23.17
2018-06-05T18:35:48.884Z,23.93
2018-06-05T18:38:18.013Z,23.90
2018-06-05T18:40:47.214Z,23.33
2018-06-05T18:43:16.401Z,22.93
2018-06-05T18:45:45.592Z,24.80
2018-06-05T18:48:18.319Z,22.90
2018-06-05T18:50:47.484Z,22.90
2018-06-05T18:53:16.620Z,23.47
2018-06-05T18:55:45.713Z,23.70
2018-06-05T18:58:14.881Z,24.27
2018-06-05T19:00:44.142Z,26.80
2018-06-05T19:03:13.242Z,26.30
2018-06-05T19:05:42.314Z,26.70
2018-06-05T19:08:11.463Z,27.27
2018-06-05T19:10:40.759Z,25.17
2018-06-05T19:13:09.903Z,29.10
2018-06-05T19:15:39.020Z,25.27
2018-06-05T19:18:08.147Z,27.33
2018-06-05T19:20:37.290Z,29.17
2018-06-05T19:23:06.527Z,30.20
2018-06-05T19:25:35.710Z,28.97
2018-06-05T19:28:04.845Z,28.10
2018-06-05T19:30:34.053Z,29.53
2018-06-05T19:33:03.210Z,29.80
2018-06-05T19:35:32.423Z,34.13
2018-06-05T19:38:01.577Z,32.00
2018-06-05T19:40:30.722Z,29.93
2018-06-05T19:42:59.934Z,30.23
2018-06-05T19:45:29.063Z,30.23
2018-06-05T19:47:58.241Z,30.43
2018-06-05T19:50:27.434Z,31.33
2018-06-05T19:52:56.594Z,32.27
2018-06-05T19:55:25.693Z,32.43
2018-06-05T19:57:54.884Z,29.77
2018-06-05T20:00:24.065Z,30.77
2018-06-05T20:02:53.272Z,29.67
2018-06-05T20:05:22.389Z,30.47
2018-06-05T20:07:51.528Z,29.90
2018-06-05T20:10:20.674Z,29.70
2018-06-05T20:12:49.825Z,27.40
2018-06-05T20:15:18.992Z,28.17
2018-06-05T20:17:48.102Z,29.77
2018-06-05T20:20:17.194Z,31.33
2018-06-05T20:22:46.304Z,30.07
2018-06-05T20:25:15.647Z,28.63
2018-06-05T20:27:44.783Z,29.37
2018-06-05T20:30:13.965Z,28.67
2018-06-05T20:32:43.122Z,28.00
2018-06-05T20:35:12.250Z,28.13
2018-06-05T20:37:41.426Z,29.20
2018-06-05T20:40:10.574Z,28.10
2018-06-05T20:42:39.810Z,27.33
2018-06-05T20:45:08.943Z,27.87
2018-06-05T20:47:38.060Z,29.40
2018-06-05T20:50:07.203Z,29.90
2018-06-05T20:52:36.338Z,29.70
2018-06-05T20:55:05.491Z,29.07
2018-06-05T20:57:34.676Z,30.93
2018-06-05T21:00:04.438Z,30.03
2018-06-05T21:02:33.757Z,29.17
2018-06-05T21:05:04.368Z,32.43
2018-06-05T21:07:33.557Z,31.57
2018-06-05T21:10:02.815Z,30.37
2018-06-05T21:12:32.048Z,31.93
2018-06-05T21:15:01.186Z,30.37
2018-06-05T21:17:30.342Z,31.03
2018-06-05T21:19:59.487Z,29.60
2018-06-05T21:22:28.611Z,31.13
2018-06-05T21:24:57.875Z,32.37
2018-06-05T21:27:26.966Z,30.80
2018-06-05T21:29:56.305Z,31.50
2018-06-05T21:32:25.520Z,31.70
2018-06-05T21:34:54.625Z,34.30
2018-06-05T21:37:23.830Z,31.57
2018-06-05T21:39:52.947Z,31.27
2018-06-05T21:42:22.317Z,31.57
2018-06-05T21:44:51.524Z,32.77
2018-06-05T21:47:20.653Z,32.53
2018-06-05T21:49:49.810Z,32.07
2018-06-05T21:52:18.944Z,31.97
2018-06-05T21:54:48.195Z,33.30
2018-06-05T21:57:17.327Z,32.63
2018-06-05T21:59:46.450Z,33.80
2018-06-05T22:02:15.603Z,33.67
2018-06-05T22:04:44.717Z,33.60
2018-06-05T22:07:13.843Z,33.83
2018-06-05T22:09:42.941Z,33.80
2018-06-05T22:12:12.095Z,35.17
2018-06-05T22:14:41.181Z,33.80
2018-06-05T22:17:10.299Z,35.63
2018-06-05T22:19:39.450Z,32.53
2018-06-05T22:22:08.549Z,33.97
2018-06-05T22:24:38.495Z,35.73
2018-06-05T22:27:07.571Z,35.13
2018-06-05T22:29:36.690Z,34.80
2018-06-05T22:32:05.833Z,35.67
2018-06-05T22:34:34.976Z,35.57
2018-06-05T22:37:04.473Z,35.20
2018-06-05T22:39:33.618Z,35.53
2018-06-05T22:42:02.770Z,34.00
2018-06-05T22:44:31.913Z,35.83
2018-06-05T22:47:01.032Z,35.80
2018-06-05T22:49:30.177Z,36.00
2018-06-05T22:51:59.344Z,34.23
2018-06-05T22:54:28.430Z,36.70
2018-06-05T22:56:57.612Z,35.67
2018-06-05T22:59:28.168Z,35.97
2018-06-05T23:01:57.563Z,35.47
2018-06-05T23:04:26.685Z,35.37
2018-06-05T23:06:55.813Z,37.33
2018-06-05T23:09:24.951Z,33.80
2018-06-05T23:11:54.070Z,33.93
2018-06-05T23:14:23.215Z,36.73
2018-06-05T23:16:52.338Z,34.60
2018-06-05T23:19:21.431Z,35.10
2018-06-05T23:21:50.514Z,35.03
2018-06-05T23:24:19.643Z,34.03
2018-06-05T23:26:48.763Z,35.77
2018-06-05T23:29:17.833Z,36.73
2018-06-05T23:31:47.036Z,34.27
2018-06-05T23:34:17.512Z,35.23
2018-06-05T23:36:46.720Z,36.70
2018-06-05T23:39:15.881Z,36.47
2018-06-05T23:41:45.010Z,35.10
2018-06-05T23:44:14.148Z,34.90
2018-06-05T23:46:43.274Z,33.07
2018-06-05T23:49:12.455Z,34.70
2018-06-05T23:51:41.578Z,34.73
2018-06-05T23:54:10.710Z,36.50
2018-06-05T23:56:39.865Z,34.67
2018-06-05T23:59:08.987Z,36.17
